.
WxDataArchive / Data Records for 2013-09-13
2013-09-12 September 2013 2013-09-14

Data Records for Friday, 13 September 2013

Time	Temp	Chill	HIndex	Humid	Dewpt	 Wind 	HiWind	WindDir	Rain 	Barom 
-----	----	-----	------	-----	-----	------	------	-------	-----	----- 
00:00	60.5	60.5	60.5	84	55.6	0	0	---	0.00	29.965 
00:05	60.5	60.5	60.5	84	55.6	0	1	292	0.00	29.965 
00:10	60.4	60.4	60.4	84	55.5	0	1	292	0.00	29.965 
00:15	60.2	60.2	60.2	84	55.3	0	1	292	0.00	29.972 
00:20	60.1	60.1	60.1	84	55.2	0	1	292	0.00	29.972 
00:25	60.1	60.1	60.1	84	55.2	0	1	292	0.00	29.972 
00:30	59.9	59.9	59.9	84	55.0	0	1	292	0.00	29.976 
00:35	59.8	59.8	59.8	83	54.6	0	2	292	0.00	29.976 
00:40	59.8	59.8	59.8	82	54.3	0	2	292	0.00	29.976 
00:45	59.8	59.8	59.8	81	54.0	0	2	292	0.00	29.976 
00:50	59.9	59.9	59.9	80	53.7	0	3	315	0.00	29.976 
00:55	59.9	59.9	59.9	80	53.7	0	2	315	0.00	29.976 
01:00	59.8	59.8	59.8	80	53.6	0	2	315	0.00	29.977 
01:05	59.6	59.6	59.6	80	53.4	0	1	22	0.00	29.977 
01:10	59.6	59.6	59.6	80	53.4	0	1	0	0.00	29.977 
01:15	59.6	59.6	59.6	79	53.1	0	2	338	0.00	29.976 
01:20	59.5	59.5	59.5	78	52.6	1	7	270	0.00	29.976 
01:25	59.5	59.5	59.5	78	52.6	0	2	338	0.00	29.976 
01:30	59.5	59.5	59.5	78	52.6	0	1	338	0.00	29.977 
01:35	59.2	59.2	59.2	78	52.3	0	1	338	0.00	29.977 
01:40	59.0	59.0	59.0	79	52.5	0	1	338	0.00	29.977 
01:45	58.7	58.7	58.7	80	52.5	0	0	---	0.00	29.983 
01:50	58.4	58.4	58.4	81	52.6	0	0	---	0.00	29.983 
01:55	58.3	58.3	58.3	82	52.8	0	0	---	0.00	29.983 
02:00	58.0	58.0	58.0	83	52.9	0	1	338	0.00	29.989 
02:05	57.6	57.6	57.6	83	52.5	0	1	338	0.00	29.989 
02:10	57.6	57.6	57.6	82	52.1	1	4	315	0.00	29.989 
02:15	57.5	57.5	57.5	81	51.7	0	1	315	0.00	29.988 
02:20	57.5	57.5	57.5	80	51.4	0	2	315	0.00	29.988 
02:25	57.5	57.5	57.5	79	51.0	0	1	292	0.00	29.988 
02:30	57.3	57.3	57.3	78	50.5	0	1	292	0.00	29.991 
02:35	57.2	57.2	57.2	79	50.7	0	1	292	0.00	29.991 
02:40	57.0	57.0	57.0	79	50.5	0	1	292	0.00	29.991 
02:45	56.9	56.9	56.9	78	50.1	0	4	292	0.00	29.999 
02:50	56.7	56.7	56.7	78	49.9	0	4	315	0.00	29.999 
02:55	56.6	56.6	56.6	78	49.8	1	6	338	0.00	29.999 
03:00	56.5	56.5	56.5	78	49.7	0	4	315	0.00	29.997 
03:05	56.3	56.3	56.3	78	49.5	0	3	315	0.00	29.997 
03:10	56.2	56.2	56.2	77	49.1	1	5	315	0.00	29.997 
03:15	56.2	56.2	56.2	77	49.1	1	4	315	0.00	29.994 
03:20	56.0	56.0	56.0	76	48.5	1	3	315	0.00	29.994 
03:25	55.9	55.9	55.9	77	48.8	0	1	315	0.00	29.994 
03:30	55.7	55.7	55.7	77	48.6	0	1	315	0.00	29.991 
03:35	55.6	55.6	55.6	77	48.5	0	2	315	0.00	29.991 
03:40	55.4	55.4	55.4	77	48.3	0	1	315	0.00	29.991 
03:45	55.3	55.3	55.3	77	48.2	0	1	315	0.00	29.996 
03:50	55.3	55.3	55.3	77	48.2	0	1	315	0.00	29.996 
03:55	55.1	55.1	55.1	78	48.4	0	1	315	0.00	29.996 
04:00	55.0	55.0	55.0	78	48.3	0	2	315	0.00	30.001 
04:05	54.8	54.8	54.8	78	48.1	0	4	338	0.00	30.001 
04:10	54.7	54.7	54.7	78	48.0	0	3	338	0.00	30.001 
04:15	54.5	54.5	54.5	78	47.8	0	1	338	0.00	30.005 
04:20	54.4	54.4	54.4	78	47.7	0	2	338	0.00	30.005 
04:25	54.1	54.1	54.1	78	47.4	0	1	338	0.00	30.005 
04:30	53.9	53.9	53.9	78	47.2	0	1	338	0.00	30.004 
04:35	53.8	53.8	53.8	78	47.1	0	3	338	0.00	30.004 
04:40	53.6	53.6	53.6	77	46.6	0	1	315	0.00	30.004 
04:45	53.6	53.6	53.6	77	46.6	0	1	315	0.00	30.007 
04:50	53.5	53.5	53.5	77	46.5	0	1	338	0.00	30.007 
04:55	53.3	53.3	53.3	77	46.3	0	1	338	0.00	30.007 
05:00	53.2	53.2	53.2	76	45.8	0	3	338	0.00	30.010 
05:05	53.2	53.2	53.2	76	45.8	0	2	315	0.00	30.010 
05:10	53.1	53.1	53.1	77	46.1	0	1	315	0.00	30.010 
05:15	52.9	52.9	52.9	77	45.9	0	1	315	0.00	30.021 
05:20	52.8	52.8	52.8	77	45.8	0	1	315	0.00	30.021 
05:25	52.5	52.5	52.5	78	45.8	0	1	315	0.00	30.021 
05:30	52.3	52.3	52.3	79	46.0	0	1	315	0.00	30.022 
05:35	52.2	52.2	52.2	79	45.9	0	1	315	0.00	30.022 
05:40	52.2	52.2	52.2	79	45.9	0	1	315	0.00	30.022 
05:45	52.0	52.0	52.0	79	45.7	0	1	315	0.00	30.024 
05:50	51.9	51.9	51.9	79	45.6	0	1	315	0.00	30.024 
05:55	51.7	51.7	51.7	79	45.4	0	1	315	0.00	30.024 
06:00	51.7	51.7	51.7	79	45.4	0	1	315	0.00	30.023 
06:05	51.6	51.6	51.6	79	45.3	0	1	315	0.00	30.023 
06:10	51.4	51.4	51.4	79	45.1	0	1	315	0.00	30.023 
06:15	51.3	51.3	51.3	80	45.3	0	1	315	0.00	30.024 
06:20	51.1	51.1	51.1	80	45.1	0	0	---	0.00	30.024 
06:25	51.0	51.0	51.0	80	45.0	0	1	315	0.00	30.024 
06:30	50.7	50.7	50.7	81	45.1	0	1	315	0.00	30.025 
06:35	50.5	50.5	50.5	81	44.9	0	0	---	0.00	30.025 
06:40	50.4	50.4	50.4	81	44.8	0	0	---	0.00	30.025 
06:45	50.2	50.2	50.2	82	44.9	0	1	315	0.00	30.027 
06:50	50.2	50.2	50.2	82	44.9	0	1	315	0.00	30.027 
06:55	50.1	50.1	50.1	82	44.8	0	0	---	0.00	30.027 
07:00	50.1	50.1	50.1	83	45.1	0	0	---	0.00	30.036 
07:05	50.1	50.1	50.1	83	45.1	0	1	315	0.00	30.036 
07:10	49.9	49.9	49.9	83	44.9	0	0	---	0.00	30.036 
07:15	49.9	49.9	49.9	84	45.3	0	1	315	0.00	30.040 
07:20	49.8	49.8	49.8	84	45.2	0	1	315	0.00	30.040 
07:25	49.8	49.8	49.8	84	45.2	0	1	315	0.00	30.040 
07:30	49.8	49.8	49.8	84	45.2	0	1	315	0.00	30.044 
07:35	49.8	49.8	49.8	84	45.2	0	1	315	0.00	30.044 
07:40	49.9	49.9	49.9	85	45.6	0	1	315	0.00	30.044 
07:45	49.9	49.9	49.9	84	45.3	0	2	315	0.00	30.044 
07:50	49.9	49.9	49.9	84	45.3	0	1	315	0.00	30.044 
07:55	50.1	50.1	50.1	84	45.5	1	3	292	0.00	30.044 
08:00	50.1	50.1	50.1	84	45.5	1	4	292	0.00	30.052 
08:05	50.2	50.2	50.2	84	45.6	0	3	315	0.00	30.052 
08:10	50.4	50.4	50.4	84	45.7	0	4	315	0.00	30.052 
08:15	50.5	50.5	50.5	83	45.5	0	2	315	0.00	30.053 
08:20	50.8	50.8	50.8	83	45.8	0	3	315	0.00	30.053 
08:25	51.0	51.0	51.0	82	45.7	1	4	315	0.00	30.053 
08:30	51.1	51.1	51.1	82	45.8	1	3	315	0.00	30.052 
08:35	51.4	51.4	51.4	81	45.8	1	5	315	0.00	30.052 
08:40	51.6	51.6	51.6	81	46.0	0	2	338	0.00	30.052 
08:45	51.9	51.9	51.9	81	46.3	0	3	338	0.00	30.051 
08:50	52.2	52.2	52.2	80	46.2	1	5	338	0.00	30.051 
08:55	52.3	52.3	52.3	79	46.0	0	3	338	0.00	30.051 
09:00	52.5	52.5	52.5	79	46.2	0	3	338	0.00	30.051 
09:05	52.6	52.6	52.6	78	45.9	1	4	0	0.00	30.051 
09:10	52.9	52.9	52.9	77	45.9	1	5	338	0.00	30.051 
09:15	53.1	53.1	53.1	77	46.1	1	4	292	0.00	30.049 
09:20	53.3	53.3	53.3	76	45.9	1	4	292	0.00	30.049 
09:25	53.5	53.5	53.5	75	45.8	1	3	315	0.00	30.049 
09:30	53.9	53.9	53.9	74	45.8	2	6	292	0.00	30.050 
09:35	54.1	54.1	54.1	74	46.0	0	3	292	0.00	30.050 
09:40	54.4	54.4	54.4	73	45.9	1	4	315	0.00	30.050 
09:45	54.5	54.5	54.5	73	46.0	1	4	315	0.00	30.053 
09:50	54.7	54.7	54.7	73	46.2	1	3	315	0.00	30.053 
09:55	55.1	55.1	55.1	72	46.2	1	4	315	0.00	30.053 
10:00	55.4	55.4	55.4	71	46.2	0	3	338	0.00	30.062 
10:05	55.7	55.7	55.7	70	46.1	1	5	315	0.00	30.062 
10:10	55.9	55.9	55.9	69	45.9	2	5	338	0.00	30.062 
10:15	56.0	56.0	56.0	69	46.0	2	6	315	0.00	30.065 
10:20	56.5	56.5	56.5	69	46.5	1	2	315	0.00	30.065 
10:25	56.5	56.5	56.5	66	45.3	3	6	315	0.00	30.065 
10:30	56.5	56.5	56.5	67	45.7	2	7	315	0.00	30.069 
10:35	56.7	56.7	56.7	66	45.5	2	5	270	0.00	30.069 
10:40	57.0	57.0	57.0	66	45.8	1	6	315	0.00	30.069 
10:45	57.6	57.6	57.6	67	46.7	1	4	0	0.00	30.068 
10:50	58.0	58.0	58.0	62	45.1	2	5	292	0.00	30.068 
10:55	57.3	57.3	57.3	62	44.4	3	6	292	0.00	30.068 
11:00	57.2	57.2	57.2	63	44.7	2	7	292	0.00	30.071 
11:05	58.1	58.1	58.1	64	46.0	1	5	22	0.00	30.071 
11:10	59.2	59.2	59.2	61	45.8	1	9	315	0.00	30.071 
11:15	59.6	59.6	59.6	60	45.7	1	3	315	0.00	30.078 
11:20	58.9	58.9	58.9	59	44.6	2	5	315	0.00	30.078 
11:25	58.1	58.1	58.1	59	43.8	2	9	0	0.00	30.078 
11:30	58.1	58.1	58.1	60	44.3	1	6	315	0.00	30.079 
11:35	58.9	58.9	58.9	61	45.5	2	6	338	0.00	30.079 
11:40	58.7	58.7	58.7	57	43.5	3	6	338	0.00	30.079 
11:45	59.2	59.2	59.2	57	44.0	1	4	338	0.00	30.082 
11:50	59.8	59.8	59.8	59	45.4	1	6	338	0.00	30.082 
11:55	60.5	60.5	60.5	55	44.2	2	7	338	0.00	30.082 
12:00	59.9	59.9	59.9	54	43.2	2	6	292	0.00	30.084 
12:05	58.6	58.6	58.6	56	43.0	2	5	315	0.00	30.084 
12:10	58.1	58.1	58.1	57	42.9	2	5	338	0.00	30.084 
12:15	58.9	58.9	58.9	59	44.6	1	5	315	0.00	30.086 
12:20	60.1	60.1	60.1	58	45.3	2	6	112	0.00	30.086 
12:25	61.0	61.0	61.0	54	44.2	2	5	270	0.00	30.086 
12:30	62.1	62.1	62.1	54	45.3	1	4	292	0.00	30.086 
12:35	61.5	61.5	61.5	50	42.7	2	5	315	0.00	30.086 
12:40	60.1	60.1	60.1	51	41.9	2	6	315	0.00	30.086 
12:45	60.2	60.2	60.2	55	44.0	1	6	135	0.00	30.091 
12:50	60.5	60.5	60.5	54	43.8	2	6	315	0.00	30.091 
12:55	60.1	60.1	60.1	53	42.9	2	6	315	0.00	30.091 
13:00	59.6	59.6	59.6	54	42.9	3	6	315	0.00	30.089 
13:05	59.3	59.3	59.3	54	42.7	2	6	292	0.00	30.089 
13:10	59.0	59.0	59.0	56	43.3	1	6	315	0.00	30.089 
13:15	59.3	59.3	59.3	54	42.7	1	6	45	0.00	30.085 
13:20	60.1	60.1	60.1	53	42.9	1	5	338	0.00	30.085 
13:25	60.2	60.2	60.2	53	43.0	2	5	292	0.00	30.085 
13:30	60.5	60.5	60.5	52	42.8	2	5	315	0.00	30.082 
13:35	60.2	60.2	60.2	54	43.5	1	6	338	0.00	30.082 
13:40	60.5	60.5	60.5	52	42.8	1	4	338	0.00	30.082 
13:45	60.9	60.9	60.9	52	43.2	1	3	315	0.00	30.083 
13:50	61.3	61.3	61.3	49	42.0	3	6	315	0.00	30.083 
13:55	61.3	61.3	61.3	50	42.5	1	6	45	0.00	30.083 
14:00	60.5	60.5	60.5	51	42.3	2	6	338	0.00	30.080 
14:05	60.2	60.2	60.2	51	42.0	1	4	292	0.00	30.080 
14:10	60.2	60.2	60.2	50	41.5	1	4	315	0.00	30.080 
14:15	60.1	60.1	60.1	50	41.4	2	6	315	0.00	30.079 
14:20	59.8	59.8	59.8	51	41.6	2	4	315	0.00	30.079 
14:25	60.7	60.7	60.7	50	41.9	1	3	315	0.00	30.079 
14:30	60.2	60.2	60.2	50	41.5	2	6	315	0.00	30.073 
14:35	60.4	60.4	60.4	50	41.7	2	6	292	0.00	30.073 
14:40	61.2	61.2	61.2	48	41.3	2	6	292	0.00	30.073 
14:45	61.0	61.0	61.0	48	41.2	1	6	338	0.00	30.070 
14:50	60.4	60.4	60.4	50	41.7	1	5	338	0.00	30.070 
14:55	60.4	60.4	60.4	50	41.7	1	5	315	0.00	30.070 
15:00	61.0	61.0	61.0	52	43.2	0	2	338	0.00	30.070 
15:05	61.8	61.8	61.8	47	41.4	1	5	338	0.00	30.070 
15:10	61.3	61.3	61.3	47	40.9	1	3	292	0.00	30.070 
15:15	61.2	61.2	61.2	48	41.3	2	6	292	0.00	30.071 
15:20	61.5	61.5	61.5	49	42.2	2	5	315	0.00	30.071 
15:25	62.3	62.3	62.3	46	41.3	2	4	315	0.00	30.071 
15:30	62.7	62.7	62.7	48	42.7	2	6	22	0.00	30.067 
15:35	62.7	62.7	62.7	46	41.6	2	6	315	0.00	30.067 
15:40	62.7	62.7	62.7	48	42.7	1	3	315	0.00	30.067 
15:45	62.4	62.4	62.4	45	40.8	2	4	315	0.00	30.069 
15:50	63.2	63.2	63.2	47	42.6	1	4	292	0.00	30.069 
15:55	63.2	63.2	63.2	46	42.1	1	4	0	0.00	30.069 
16:00	62.4	62.4	62.4	45	40.8	1	3	45	0.00	30.068 
16:05	62.3	62.3	62.3	49	42.9	1	7	338	0.00	30.068 
16:10	62.6	62.6	62.6	47	42.1	2	7	90	0.00	30.068 
16:15	62.7	62.7	62.7	47	42.2	1	5	112	0.00	30.070 
16:20	62.6	62.6	62.6	47	42.1	1	3	68	0.00	30.070 
16:25	61.6	61.6	61.6	46	40.6	1	5	338	0.00	30.070 
16:30	61.0	61.0	61.0	47	40.6	1	5	338	0.00	30.072 
16:35	60.9	60.9	60.9	49	41.6	1	3	292	0.00	30.072 
16:40	61.3	61.3	61.3	48	41.4	1	3	292	0.00	30.072 
16:45	62.0	62.0	62.0	46	41.0	1	4	270	0.00	30.070 
16:50	62.4	62.4	62.4	47	41.9	1	4	90	0.00	30.070 
16:55	62.7	62.7	62.7	47	42.2	1	4	292	0.00	30.070 
17:00	62.7	62.7	62.7	45	41.0	1	6	338	0.00	30.068 
17:05	61.8	61.8	61.8	46	40.8	1	4	338	0.00	30.068 
17:10	61.3	61.3	61.3	48	41.4	0	1	338	0.00	30.068 
17:15	61.2	61.2	61.2	48	41.3	0	3	338	0.00	30.074 
17:20	61.2	61.2	61.2	48	41.3	0	3	338	0.00	30.074 
17:25	61.5	61.5	61.5	48	41.6	1	3	338	0.00	30.074 
17:30	62.0	62.0	62.0	48	42.1	1	5	112	0.00	30.072 
17:35	62.1	62.1	62.1	48	42.2	1	3	90	0.00	30.072 
17:40	61.6	61.6	61.6	48	41.7	0	2	112	0.00	30.072 
17:45	61.5	61.5	61.5	50	42.7	1	6	90	0.00	30.072 
17:50	61.3	61.3	61.3	49	42.0	1	4	112	0.00	30.072 
17:55	60.9	60.9	60.9	50	42.1	0	2	112	0.00	30.072 
18:00	61.2	61.2	61.2	50	42.4	0	2	112	0.00	30.074 
18:05	61.3	61.3	61.3	49	42.0	1	5	112	0.00	30.074 
18:10	61.2	61.2	61.2	50	42.4	2	6	90	0.00	30.074 
18:15	61.0	61.0	61.0	49	41.7	1	5	112	0.00	30.077 
18:20	61.0	61.0	61.0	49	41.7	0	1	292	0.00	30.077 
18:25	61.0	61.0	61.0	49	41.7	1	4	292	0.00	30.077 
18:30	61.0	61.0	61.0	48	41.2	0	2	292	0.00	30.077 
18:35	60.7	60.7	60.7	49	41.4	1	3	292	0.00	30.077 
18:40	60.5	60.5	60.5	49	41.2	1	3	292	0.00	30.077 
18:45	60.5	60.5	60.5	50	41.8	1	3	112	0.00	30.082 
18:50	60.2	60.2	60.2	50	41.5	1	5	90	0.00	30.082 
18:55	59.8	59.8	59.8	51	41.6	0	2	45	0.00	30.082 
19:00	59.6	59.6	59.6	52	42.0	0	3	292	0.00	30.090 
19:05	59.3	59.3	59.3	51	41.2	1	4	112	0.00	30.090 
19:10	59.0	59.0	59.0	52	41.4	0	2	112	0.00	30.090 
19:15	58.7	58.7	58.7	52	41.1	0	2	112	0.00	30.091 
19:20	58.4	58.4	58.4	52	40.8	0	3	112	0.00	30.091 
19:25	58.3	58.3	58.3	52	40.8	0	3	112	0.00	30.091 
19:30	58.1	58.1	58.1	53	41.1	0	1	112	0.00	30.093 
19:35	57.8	57.8	57.8	54	41.3	0	1	112	0.00	30.093 
19:40	57.5	57.5	57.5	54	41.0	0	1	112	0.00	30.093 
19:45	57.2	57.2	57.2	54	40.7	0	1	112	0.00	30.097 
19:50	56.9	56.9	56.9	55	40.9	0	1	112	0.00	30.097 
19:55	56.7	56.7	56.7	56	41.2	0	1	112	0.00	30.097 
20:00	56.5	56.5	56.5	57	41.5	0	1	112	0.00	30.099 
20:05	56.2	56.2	56.2	58	41.6	0	1	112	0.00	30.099 
20:10	55.9	55.9	55.9	58	41.3	0	1	112	0.00	30.099 
20:15	55.6	55.6	55.6	59	41.5	0	1	112	0.00	30.105 
20:20	55.3	55.3	55.3	60	41.7	0	1	112	0.00	30.105 
20:25	55.0	55.0	55.0	61	41.8	0	1	112	0.00	30.105 
20:30	54.7	54.7	54.7	62	41.9	0	0	---	0.00	30.108 
20:35	54.2	54.2	54.2	62	41.5	0	0	---	0.00	30.108 
20:40	53.9	53.9	53.9	62	41.2	0	0	---	0.00	30.108 
20:45	53.6	53.6	53.6	63	41.3	0	0	---	0.00	30.112 
20:50	53.3	53.3	53.3	63	41.0	0	0	---	0.00	30.112 
20:55	53.1	53.1	53.1	65	41.6	0	0	---	0.00	30.112 
21:00	52.8	52.8	52.8	66	41.8	0	0	---	0.00	30.119 
21:05	52.5	52.5	52.5	66	41.5	0	0	---	0.00	30.119 
21:10	52.3	52.3	52.3	66	41.3	0	0	---	0.00	30.119 
21:15	52.0	52.0	52.0	68	41.8	0	0	---	0.00	30.126 
21:20	51.9	51.9	51.9	69	42.1	0	0	---	0.00	30.126 
21:25	51.7	51.7	51.7	69	41.9	0	0	---	0.00	30.126 
21:30	51.6	51.6	51.6	70	42.1	0	0	---	0.00	30.127 
21:35	51.4	51.4	51.4	70	41.9	0	0	---	0.00	30.127 
21:40	51.3	51.3	51.3	71	42.2	0	0	---	0.00	30.127 
21:45	51.3	51.3	51.3	71	42.2	0	0	---	0.00	30.129 
21:50	51.3	51.3	51.3	71	42.2	0	1	112	0.00	30.129 
21:55	51.3	51.3	51.3	72	42.6	0	0	---	0.00	30.129 
22:00	51.1	51.1	51.1	73	42.7	0	0	---	0.00	30.129 
22:05	51.0	51.0	51.0	73	42.7	0	0	---	0.00	30.129 
22:10	50.7	50.7	50.7	73	42.4	0	0	---	0.00	30.129 
22:15	50.5	50.5	50.5	74	42.5	0	0	---	0.00	30.125 
22:20	50.4	50.4	50.4	74	42.4	0	0	---	0.00	30.125 
22:25	50.4	50.4	50.4	74	42.4	0	0	---	0.00	30.125 
22:30	50.4	50.4	50.4	74	42.4	0	1	112	0.00	30.124 
22:35	50.2	50.2	50.2	74	42.2	0	0	---	0.00	30.124 
22:40	50.1	50.1	50.1	74	42.1	0	0	---	0.00	30.124 
22:45	49.9	49.9	49.9	74	41.9	0	0	---	0.00	30.125 
22:50	49.9	49.9	49.9	75	42.3	0	0	---	0.00	30.125 
22:55	49.9	49.9	49.9	75	42.3	0	0	---	0.00	30.125 
23:00	49.9	49.9	49.9	75	42.3	0	1	112	0.00	30.126 
23:05	49.9	49.9	49.9	75	42.3	0	0	---	0.00	30.126 
23:10	49.9	49.9	49.9	75	42.3	0	0	---	0.00	30.126 
23:15	49.8	49.8	49.8	75	42.2	0	0	---	0.00	30.124 
23:20	49.6	49.6	49.6	76	42.3	0	0	---	0.00	30.124 
23:25	49.5	49.5	49.5	76	42.3	0	0	---	0.00	30.124 
23:30	49.4	49.4	49.4	76	42.2	0	0	---	0.00	30.127 
23:35	49.1	49.1	49.1	76	41.9	0	0	---	0.00	30.127 
23:40	48.9	48.9	48.9	77	42.0	0	0	---	0.00	30.127 
23:45	48.6	48.6	48.6	77	41.7	0	0	---	0.00	30.125 
23:50	48.5	48.5	48.5	78	42.0	0	0	---	0.00	30.125 
23:55	48.2	48.2	48.2	78	41.7	0	0	---	0.00	30.125 

CoCoRaHS
IN-AL-39
A2 Web Hosting
Creative Commons License
GoDaddy
search engine by freefind advanced

loaded 2018-11-13 23:57:59 • last modified 2010-11-18 10:43:29
Privacy PolicyDisclaimer
• wx.awcolley.com is powered by PmWiki v.2002016 •
• all content (unless otherwise noted) © 2018 A W Colley